createdAt,value
2023-05-05T00:00:11.075Z,99789.05
2023-05-05T00:01:11.081Z,99792.84
2023-05-05T00:02:11.115Z,99794.07
2023-05-05T00:03:11.165Z,99794.02
2023-05-05T00:04:11.138Z,99789.83
2023-05-05T00:05:11.084Z,99793.83
2023-05-05T00:06:11.078Z,99795.06
2023-05-05T00:07:11.079Z,99787.68
2023-05-05T00:08:11.079Z,99790.13
2023-05-05T00:09:11.076Z,99792.10
2023-05-05T00:10:11.087Z,99792.58
2023-05-05T00:11:11.087Z,99793.34
2023-05-05T00:12:11.086Z,99792.43
2023-05-05T00:13:11.114Z,99787.80
2023-05-05T00:14:11.081Z,99788.03
2023-05-05T00:15:11.079Z,99787.80
2023-05-05T00:16:11.074Z,99789.23
2023-05-05T00:17:11.189Z,99785.40
2023-05-05T00:18:11.081Z,99788.56
2023-05-05T00:19:11.083Z,99785.15
2023-05-05T00:20:11.084Z,99785.33
2023-05-05T00:21:11.100Z,99787.74
2023-05-05T00:22:11.084Z,99784.36
2023-05-05T00:23:11.087Z,99783.88
2023-05-05T00:24:11.097Z,99783.13
2023-05-05T00:25:11.079Z,99784.67
2023-05-05T00:26:11.097Z,99783.24
2023-05-05T00:27:11.078Z,99783.23
2023-05-05T00:28:11.086Z,99785.22
2023-05-05T00:29:11.089Z,99785.15
2023-05-05T00:30:11.083Z,99783.45
2023-05-05T00:31:11.172Z,99785.32
2023-05-05T00:32:11.090Z,99786.48
2023-05-05T00:33:11.116Z,99785.12
2023-05-05T00:34:11.082Z,99786.12
2023-05-05T00:35:11.113Z,99782.70
2023-05-05T00:36:11.098Z,99783.06
2023-05-05T00:37:11.087Z,99782.57
2023-05-05T00:38:11.088Z,99780.49
2023-05-05T00:39:11.086Z,99782.23
2023-05-05T00:40:11.084Z,99782.30
2023-05-05T00:41:11.094Z,99782.90
2023-05-05T00:42:11.084Z,99782.06
2023-05-05T00:43:11.086Z,99780.43
2023-05-05T00:44:11.090Z,99776.76
2023-05-05T00:45:11.091Z,99776.46
2023-05-05T00:46:19.138Z,99778.84
2023-05-05T00:47:11.099Z,99774.63
2023-05-05T00:48:11.147Z,99774.95
2023-05-05T00:49:11.119Z,99776.18
2023-05-05T00:50:13.096Z,99777.88
2023-05-05T00:51:12.087Z,99776.28
2023-05-05T00:52:12.092Z,99776.66
2023-05-05T00:53:12.098Z,99774.82
2023-05-05T00:54:11.094Z,99774.51
2023-05-05T00:55:11.086Z,99777.62
2023-05-05T00:56:11.094Z,99776.36
2023-05-05T00:57:11.092Z,99776.42
2023-05-05T00:58:11.091Z,99779.64
2023-05-05T00:59:11.094Z,99777.41
2023-05-05T01:00:11.103Z,99776.71
2023-05-05T01:01:11.188Z,99776.08
2023-05-05T01:02:11.083Z,99777.74
2023-05-05T01:03:11.095Z,99776.50
2023-05-05T01:04:11.080Z,99779.07
2023-05-05T01:05:11.072Z,99777.15
2023-05-05T01:06:20.066Z,99775.01
2023-05-05T01:07:23.068Z,99773.99
2023-05-05T01:08:19.068Z,99774.57
2023-05-05T01:09:19.068Z,99774.18
2023-05-05T01:10:21.232Z,99774.12
2023-05-05T01:11:19.069Z,99775.85
2023-05-05T01:12:18.071Z,99772.04
2023-05-05T01:13:21.073Z,99775.68
2023-05-05T01:14:17.073Z,99770.46
2023-05-05T01:15:21.062Z,99771.34
2023-05-05T01:16:19.083Z,99768.92
2023-05-05T01:17:18.072Z,99773.58
2023-05-05T01:18:17.071Z,99771.38
2023-05-05T01:19:19.070Z,99768.44
2023-05-05T01:20:20.070Z,99766.94
2023-05-05T01:21:21.071Z,99767.94
2023-05-05T01:22:12.070Z,99768.58
2023-05-05T01:23:15.072Z,99767.48
2023-05-05T01:24:19.067Z,99768.84
2023-05-05T01:25:19.063Z,99769.40
2023-05-05T01:26:21.068Z,99764.98
2023-05-05T01:27:19.073Z,99767.60
2023-05-05T01:28:19.067Z,99768.58
2023-05-05T01:29:19.065Z,99773.42
2023-05-05T01:30:19.070Z,99771.42
2023-05-05T01:31:19.081Z,99773.68
2023-05-05T01:32:12.074Z,99771.81
2023-05-05T01:33:14.066Z,99772.08
2023-05-05T01:34:11.094Z,99770.01
2023-05-05T01:35:20.077Z,99768.51
2023-05-05T01:36:14.068Z,99772.00
2023-05-05T01:37:14.067Z,99767.37
2023-05-05T01:38:16.096Z,99770.44
2023-05-05T01:39:14.068Z,99771.09
2023-05-05T01:40:12.065Z,99769.34
2023-05-05T01:41:16.084Z,99768.19
2023-05-05T01:42:11.066Z,99771.42
2023-05-05T01:43:12.064Z,99769.50
2023-05-05T01:44:11.067Z,99766.66
2023-05-05T01:45:12.075Z,99768.37
2023-05-05T01:46:11.121Z,99766.05
2023-05-05T01:47:11.075Z,99766.65
2023-05-05T01:48:11.080Z,99763.42
2023-05-05T01:49:11.083Z,99763.65
2023-05-05T01:50:11.076Z,99763.42
2023-05-05T01:51:11.072Z,99764.34
2023-05-05T01:52:11.078Z,99759.95
2023-05-05T01:53:11.066Z,99761.00
2023-05-05T01:54:11.073Z,99757.88
2023-05-05T01:55:11.061Z,99759.20
2023-05-05T01:56:11.067Z,99755.64
2023-05-05T01:57:11.078Z,99755.79
2023-05-05T01:58:11.072Z,99757.27
2023-05-05T01:59:11.077Z,99756.32
2023-05-05T02:00:11.221Z,99753.86
2023-05-05T02:01:11.102Z,99754.80
2023-05-05T02:02:11.224Z,99754.24
2023-05-05T02:03:12.163Z,99756.38
2023-05-05T02:04:11.071Z,99754.84
2023-05-05T02:05:11.068Z,99753.43
2023-05-05T02:06:11.075Z,99755.23
2023-05-05T02:07:12.065Z,99751.43
2023-05-05T02:08:11.073Z,99754.40
2023-05-05T02:09:12.085Z,99754.68
2023-05-05T02:10:12.066Z,99753.42
2023-05-05T02:11:11.071Z,99750.89
2023-05-05T02:12:11.072Z,99750.01
2023-05-05T02:13:12.221Z,99751.21
2023-05-05T02:14:11.070Z,99751.33
2023-05-05T02:15:11.074Z,99749.70
2023-05-05T02:16:11.092Z,99752.44
2023-05-05T02:17:11.082Z,99753.90
2023-05-05T02:18:11.078Z,99753.29
2023-05-05T02:19:11.073Z,99758.19
2023-05-05T02:20:13.079Z,99757.13
2023-05-05T02:21:11.074Z,99755.72
2023-05-05T02:22:11.076Z,99760.89
2023-05-05T02:23:11.072Z,99759.63
2023-05-05T02:24:11.079Z,99757.11
2023-05-05T02:25:11.073Z,99760.38
2023-05-05T02:26:11.077Z,99760.26
2023-05-05T02:27:11.086Z,99762.11
2023-05-05T02:28:17.072Z,99762.80
2023-05-05T02:29:17.080Z,99762.70
2023-05-05T02:30:13.079Z,99757.39
2023-05-05T02:31:11.114Z,99759.80
2023-05-05T02:32:18.077Z,99761.00
2023-05-05T02:33:12.097Z,99760.96
2023-05-05T02:34:11.077Z,99757.30
2023-05-05T02:35:16.175Z,99760.38
2023-05-05T02:36:19.082Z,99761.88
2023-05-05T02:37:12.080Z,99764.50
2023-05-05T02:38:14.078Z,99763.42
2023-05-05T02:39:19.087Z,99763.70
2023-05-05T02:40:11.187Z,99762.14
2023-05-05T02:41:15.075Z,99759.26
2023-05-05T02:42:12.098Z,99760.85
2023-05-05T02:43:15.199Z,99760.52
2023-05-05T02:44:12.078Z,99758.23
2023-05-05T02:45:17.101Z,99758.14
2023-05-05T02:46:11.131Z,99762.18
2023-05-05T02:47:11.078Z,99763.36
2023-05-05T02:48:11.084Z,99762.55
2023-05-05T02:49:11.075Z,99760.57
2023-05-05T02:50:11.263Z,99760.88
2023-05-05T02:51:11.077Z,99761.16
2023-05-05T02:52:11.087Z,99762.00
2023-05-05T02:53:11.078Z,99760.90
2023-05-05T02:54:11.082Z,99764.00
2023-05-05T02:55:11.077Z,99766.57
2023-05-05T02:56:19.084Z,99764.99
2023-05-05T02:57:11.078Z,99764.04
2023-05-05T02:58:19.080Z,99765.99
2023-05-05T02:59:19.096Z,99763.68
2023-05-05T03:00:21.090Z,99763.90
2023-05-05T03:01:19.099Z,99768.21
2023-05-05T03:02:19.099Z,99760.50
2023-05-05T03:03:21.127Z,99762.17
2023-05-05T03:04:18.082Z,99763.09
2023-05-05T03:05:19.085Z,99759.97
2023-05-05T03:06:16.093Z,99758.98
2023-05-05T03:07:19.084Z,99759.40
2023-05-05T03:08:15.115Z,99752.17
2023-05-05T03:09:19.078Z,99749.64
2023-05-05T03:10:11.109Z,99750.92
2023-05-05T03:11:15.095Z,99750.38
2023-05-05T03:12:12.086Z,99747.39
2023-05-05T03:13:11.136Z,99752.76
2023-05-05T03:14:15.126Z,99752.51
2023-05-05T03:15:11.085Z,99748.51
2023-05-05T03:16:11.085Z,99748.83
2023-05-05T03:17:12.084Z,99750.10
2023-05-05T03:18:11.083Z,99748.55
2023-05-05T03:19:11.082Z,99750.43
2023-05-05T03:20:11.081Z,99749.01
2023-05-05T03:21:12.086Z,99748.95
2023-05-05T03:22:11.075Z,99747.84
2023-05-05T03:23:11.087Z,99748.38
2023-05-05T03:24:15.081Z,99750.09
2023-05-05T03:25:11.079Z,99749.32
2023-05-05T03:26:11.080Z,99747.83
2023-05-05T03:27:11.128Z,99747.93
2023-05-05T03:28:11.081Z,99744.39
2023-05-05T03:29:11.079Z,99751.79
2023-05-05T03:30:11.078Z,99752.83
2023-05-05T03:31:11.077Z,99748.26
2023-05-05T03:32:11.127Z,99751.24
2023-05-05T03:33:11.081Z,99755.94
2023-05-05T03:34:11.080Z,99752.66
2023-05-05T03:35:11.082Z,99755.80
2023-05-05T03:36:11.081Z,99755.73
2023-05-05T03:37:11.089Z,99757.95
2023-05-05T03:38:11.089Z,99760.61
2023-05-05T03:39:11.081Z,99756.52
2023-05-05T03:40:11.080Z,99752.59
2023-05-05T03:41:11.086Z,99758.31
2023-05-05T03:42:11.092Z,99756.36
2023-05-05T03:43:11.088Z,99758.16
2023-05-05T03:44:11.088Z,99757.28
2023-05-05T03:45:11.082Z,99758.93
2023-05-05T03:46:11.105Z,99755.92
2023-05-05T03:47:11.085Z,99758.78
2023-05-05T03:48:11.099Z,99759.11
2023-05-05T03:49:11.087Z,99755.52
2023-05-05T03:50:11.081Z,99752.28
2023-05-05T03:51:11.084Z,99750.41
2023-05-05T03:52:12.623Z,99752.52
2023-05-05T03:53:11.085Z,99749.66
2023-05-05T03:54:11.092Z,99751.13
2023-05-05T03:55:11.098Z,99749.52
2023-05-05T03:56:11.088Z,99745.74
2023-05-05T03:57:11.105Z,99746.40
2023-05-05T03:58:11.128Z,99746.46
2023-05-05T03:59:11.090Z,99743.25
2023-05-05T04:00:11.090Z,99745.01
2023-05-05T04:01:11.062Z,99744.71
2023-05-05T04:02:11.064Z,99746.97
2023-05-05T04:03:11.303Z,99742.64
2023-05-05T04:04:11.102Z,99743.30
2023-05-05T04:05:11.071Z,99741.68
2023-05-05T04:06:11.068Z,99744.90
2023-05-05T04:07:11.063Z,99745.09
2023-05-05T04:08:11.065Z,99750.59
2023-05-05T04:09:11.070Z,99747.57
2023-05-05T04:10:11.061Z,99750.25
2023-05-05T04:11:11.071Z,99748.64
2023-05-05T04:12:13.065Z,99749.92
2023-05-05T04:13:11.245Z,99750.47
2023-05-05T04:14:11.071Z,99750.47
2023-05-05T04:15:11.067Z,99752.74
2023-05-05T04:16:11.106Z,99753.04
2023-05-05T04:17:12.066Z,99752.50
2023-05-05T04:18:11.106Z,99752.79
2023-05-05T04:19:11.065Z,99748.34
2023-05-05T04:20:11.221Z,99753.24
2023-05-05T04:21:11.066Z,99750.26
2023-05-05T04:22:11.066Z,99755.07
2023-05-05T04:23:11.067Z,99754.58
2023-05-05T04:24:11.071Z,99758.61
2023-05-05T04:25:11.064Z,99758.02
2023-05-05T04:26:11.068Z,99761.99
2023-05-05T04:27:11.068Z,99761.00
2023-05-05T04:28:11.072Z,99761.14
2023-05-05T04:29:11.065Z,99760.04
2023-05-05T04:30:11.071Z,99759.61
2023-05-05T04:31:11.099Z,99764.20
2023-05-05T04:32:11.070Z,99759.10
2023-05-05T04:33:11.069Z,99761.52
2023-05-05T04:34:11.070Z,99761.91
2023-05-05T04:35:11.087Z,99760.66
2023-05-05T04:36:11.071Z,99762.24
2023-05-05T04:37:11.078Z,99762.80
2023-05-05T04:38:11.076Z,99759.55
2023-05-05T04:39:12.068Z,99759.98
2023-05-05T04:40:11.069Z,99763.45
2023-05-05T04:41:12.080Z,99761.27
2023-05-05T04:42:11.066Z,99761.15
2023-05-05T04:43:11.090Z,99759.57
2023-05-05T04:44:11.083Z,99759.40
2023-05-05T04:45:11.086Z,99761.48
2023-05-05T04:46:11.096Z,99759.91
2023-05-05T04:47:13.264Z,99762.26
2023-05-05T04:48:11.069Z,99759.43
2023-05-05T04:49:11.067Z,99761.75
2023-05-05T04:50:11.191Z,99759.21
2023-05-05T04:51:11.076Z,99762.78
2023-05-05T04:52:11.066Z,99759.62
2023-05-05T04:53:11.074Z,99759.52
2023-05-05T04:54:11.076Z,99762.41
2023-05-05T04:55:11.070Z,99760.36
2023-05-05T04:56:11.071Z,99764.27
2023-05-05T04:57:11.074Z,99762.03
2023-05-05T04:58:11.074Z,99761.99
2023-05-05T04:59:11.071Z,99763.42
2023-05-05T05:00:11.235Z,99762.51
2023-05-05T05:01:11.070Z,99763.89
2023-05-05T05:02:11.084Z,99766.23
2023-05-05T05:03:11.127Z,99766.68
2023-05-05T05:04:11.104Z,99766.99
2023-05-05T05:05:11.078Z,99766.55
2023-05-05T05:06:11.075Z,99764.84
2023-05-05T05:07:11.073Z,99771.67
2023-05-05T05:08:11.074Z,99769.07
2023-05-05T05:09:11.073Z,99770.30
2023-05-05T05:10:11.249Z,99769.21
2023-05-05T05:11:11.072Z,99772.06
2023-05-05T05:12:11.080Z,99775.91
2023-05-05T05:13:12.783Z,99771.84
2023-05-05T05:14:11.080Z,99769.55
2023-05-05T05:15:11.086Z,99772.22
2023-05-05T05:16:11.107Z,99771.03
2023-05-05T05:17:11.097Z,99772.41
2023-05-05T05:18:11.087Z,99775.60
2023-05-05T05:19:11.082Z,99773.61
2023-05-05T05:20:11.424Z,99777.54
2023-05-05T05:21:11.080Z,99776.27
2023-05-05T05:22:11.075Z,99778.62
2023-05-05T05:23:11.075Z,99780.09
2023-05-05T05:24:11.086Z,99781.35
2023-05-05T05:25:11.087Z,99780.40
2023-05-05T05:26:11.073Z,99781.03
2023-05-05T05:27:13.085Z,99781.91
2023-05-05T05:28:11.219Z,99784.73
2023-05-05T05:29:11.073Z,99783.23
2023-05-05T05:30:11.087Z,99787.06
2023-05-05T05:31:11.076Z,99788.17
2023-05-05T05:32:11.127Z,99793.06
2023-05-05T05:33:11.192Z,99792.24
2023-05-05T05:34:12.711Z,99790.20
2023-05-05T05:35:11.074Z,99793.50
2023-05-05T05:36:11.082Z,99791.62
2023-05-05T05:37:11.076Z,99793.79
2023-05-05T05:38:11.075Z,99797.91
2023-05-05T05:39:11.074Z,99797.33
2023-05-05T05:40:11.080Z,99799.75
2023-05-05T05:41:11.068Z,99799.01
2023-05-05T05:42:11.084Z,99795.21
2023-05-05T05:43:11.107Z,99800.52
2023-05-05T05:44:11.071Z,99798.11
2023-05-05T05:45:11.073Z,99805.62
2023-05-05T05:46:11.102Z,99803.75
2023-05-05T05:47:11.080Z,99804.84
2023-05-05T05:48:11.119Z,99808.64
2023-05-05T05:49:11.083Z,99809.11
2023-05-05T05:50:11.263Z,99812.06
2023-05-05T05:51:11.074Z,99807.26
2023-05-05T05:52:11.084Z,99806.23
2023-05-05T05:53:11.077Z,99811.33
2023-05-05T05:54:11.074Z,99810.62
2023-05-05T05:55:11.075Z,99817.54
2023-05-05T05:56:11.078Z,99815.66
2023-05-05T05:57:11.078Z,99814.89
2023-05-05T05:58:11.076Z,99818.68
2023-05-05T05:59:12.076Z,99820.24
2023-05-05T06:00:11.197Z,99821.76
2023-05-05T06:01:11.080Z,99819.54
2023-05-05T06:02:11.114Z,99826.07
2023-05-05T06:03:11.325Z,99823.34
2023-05-05T06:04:11.093Z,99824.17
2023-05-05T06:05:11.075Z,99826.15
2023-05-05T06:06:11.080Z,99825.01
2023-05-05T06:07:11.075Z,99829.12
2023-05-05T06:08:11.077Z,99828.73
2023-05-05T06:09:11.077Z,99833.45
2023-05-05T06:10:22.787Z,99832.75
2023-05-05T06:11:13.806Z,99832.58
2023-05-05T06:12:11.080Z,99834.91
2023-05-05T06:13:11.223Z,99830.79
2023-05-05T06:14:11.077Z,99831.16
2023-05-05T06:15:11.083Z,99830.50
2023-05-05T06:16:11.141Z,99832.98
2023-05-05T06:17:11.078Z,99830.71
2023-05-05T06:18:11.109Z,99830.94
2023-05-05T06:19:14.084Z,99831.93
2023-05-05T06:20:11.075Z,99829.48
2023-05-05T06:21:11.075Z,99826.35
2023-05-05T06:22:11.081Z,99830.90
2023-05-05T06:23:11.081Z,99832.72
2023-05-05T06:24:11.081Z,99837.78
2023-05-05T06:25:11.086Z,99835.41
2023-05-05T06:26:11.077Z,99834.92
2023-05-05T06:27:11.076Z,99831.63
2023-05-05T06:28:11.075Z,99835.48
2023-05-05T06:29:12.330Z,99838.59
2023-05-05T06:30:11.134Z,99841.07
2023-05-05T06:31:11.104Z,99837.43
2023-05-05T06:32:12.081Z,99837.23
2023-05-05T06:33:11.076Z,99844.47
2023-05-05T06:34:11.080Z,99847.37
2023-05-05T06:35:11.084Z,99842.71
2023-05-05T06:36:11.120Z,99847.23
2023-05-05T06:37:11.104Z,99849.90
2023-05-05T06:38:11.091Z,99851.57
2023-05-05T06:39:11.084Z,99849.48
2023-05-05T06:40:11.252Z,99855.36
2023-05-05T06:41:11.080Z,99850.62
2023-05-05T06:42:11.082Z,99853.05
2023-05-05T06:43:11.088Z,99848.88
2023-05-05T06:44:11.086Z,99851.61
2023-05-05T06:45:11.082Z,99846.28
2023-05-05T06:46:11.082Z,99853.59
2023-05-05T06:47:11.097Z,99850.48
2023-05-05T06:48:11.087Z,99854.81
2023-05-05T06:49:11.085Z,99852.17
2023-05-05T06:50:11.303Z,99854.10
2023-05-05T06:51:11.091Z,99851.52
2023-05-05T06:52:12.109Z,99852.88
2023-05-05T06:53:11.091Z,99850.19
2023-05-05T06:54:11.083Z,99856.78
2023-05-05T06:55:11.089Z,99854.13
2023-05-05T06:56:11.088Z,99853.04
2023-05-05T06:57:11.084Z,99855.52
2023-05-05T06:58:11.085Z,99852.39
2023-05-05T06:59:11.088Z,99852.38
2023-05-05T07:00:11.126Z,99853.91
2023-05-05T07:01:11.112Z,99859.33
2023-05-05T07:02:11.063Z,99855.38
2023-05-05T07:03:11.157Z,99856.26
2023-05-05T07:04:11.181Z,99857.55
2023-05-05T07:05:11.089Z,99860.02
2023-05-05T07:06:11.067Z,99862.09
2023-05-05T07:07:11.067Z,99861.55
2023-05-05T07:08:11.097Z,99866.60
2023-05-05T07:09:11.063Z,99869.61
2023-05-05T07:10:11.091Z,99866.08
2023-05-05T07:11:11.086Z,99865.64
2023-05-05T07:12:11.073Z,99868.55
2023-05-05T07:13:11.206Z,99864.91
2023-05-05T07:14:11.078Z,99865.25
2023-05-05T07:15:23.299Z,99869.86
2023-05-05T07:16:13.849Z,99866.48
2023-05-05T07:17:11.106Z,99869.71
2023-05-05T07:18:11.152Z,99869.11
2023-05-05T07:19:11.066Z,99868.83
2023-05-05T07:20:11.140Z,99869.70
2023-05-05T07:21:11.065Z,99870.53
2023-05-05T07:22:11.072Z,99869.29
2023-05-05T07:23:11.072Z,99872.29
2023-05-05T07:24:11.069Z,99871.92
2023-05-05T07:25:11.075Z,99865.32
2023-05-05T07:26:11.076Z,99872.90
2023-05-05T07:27:11.069Z,99870.72
2023-05-05T07:28:11.071Z,99871.23
2023-05-05T07:29:11.068Z,99873.57
2023-05-05T07:30:14.064Z,99874.65
2023-05-05T07:31:13.037Z,99873.28
2023-05-05T07:32:11.122Z,99872.14
2023-05-05T07:33:11.122Z,99870.93
2023-05-05T07:34:11.068Z,99871.55
2023-05-05T07:35:11.071Z,99867.12
2023-05-05T07:36:11.088Z,99866.59
2023-05-05T07:37:11.068Z,99868.37
2023-05-05T07:38:11.119Z,99867.67
2023-05-05T07:39:11.082Z,99869.71
2023-05-05T07:40:11.351Z,99873.16
2023-05-05T07:41:11.077Z,99870.22
2023-05-05T07:42:11.084Z,99874.24
2023-05-05T07:43:11.071Z,99872.84
2023-05-05T07:44:11.072Z,99873.84
2023-05-05T07:45:11.084Z,99870.71
2023-05-05T07:46:11.159Z,99876.59
2023-05-05T07:47:11.075Z,99874.95
2023-05-05T07:48:11.086Z,99872.06
2023-05-05T07:49:11.068Z,99874.21
2023-05-05T07:50:11.440Z,99880.25
2023-05-05T07:51:11.079Z,99879.56
2023-05-05T07:52:11.068Z,99883.73
2023-05-05T07:53:14.905Z,99878.48
2023-05-05T07:54:11.081Z,99877.98
2023-05-05T07:55:11.074Z,99882.63
2023-05-05T07:56:11.078Z,99885.73
2023-05-05T07:57:11.076Z,99886.21
2023-05-05T07:58:11.150Z,99886.25
2023-05-05T07:59:11.078Z,99887.64
2023-05-05T08:00:11.425Z,99886.04
2023-05-05T08:01:11.141Z,99885.01
2023-05-05T08:02:11.105Z,99889.82
2023-05-05T08:03:12.165Z,99887.75
2023-05-05T08:04:11.166Z,99886.73
2023-05-05T08:05:11.230Z,99887.00
2023-05-05T08:06:11.086Z,99887.92
2023-05-05T08:07:11.071Z,99885.82
2023-05-05T08:08:11.072Z,99885.95
2023-05-05T08:09:11.078Z,99888.76
2023-05-05T08:10:13.092Z,99887.97
2023-05-05T08:11:11.077Z,99892.55
2023-05-05T08:12:11.073Z,99889.36
2023-05-05T08:13:11.104Z,99888.01
2023-05-05T08:14:11.072Z,99886.34
2023-05-05T08:15:11.312Z,99885.31
2023-05-05T08:16:11.108Z,99891.90
2023-05-05T08:17:11.084Z,99892.17
2023-05-05T08:18:11.077Z,99885.33
2023-05-05T08:19:25.074Z,99894.42
2023-05-05T08:20:13.846Z,99893.10
2023-05-05T08:21:11.085Z,99890.77
2023-05-05T08:22:11.078Z,99890.56
2023-05-05T08:23:11.079Z,99895.38
2023-05-05T08:24:11.084Z,99894.52
2023-05-05T08:25:11.091Z,99896.14
2023-05-05T08:26:11.077Z,99900.12
2023-05-05T08:27:11.079Z,99898.59
2023-05-05T08:28:11.076Z,99899.31
2023-05-05T08:29:11.074Z,99903.72
2023-05-05T08:30:11.079Z,99901.51
2023-05-05T08:31:11.108Z,99903.55
2023-05-05T08:32:11.094Z,99904.30
2023-05-05T08:33:11.109Z,99900.32
2023-05-05T08:34:11.086Z,99900.60
2023-05-05T08:35:11.816Z,99904.80
2023-05-05T08:36:11.085Z,99904.32
2023-05-05T08:37:11.096Z,99909.24
2023-05-05T08:38:11.093Z,99901.54
2023-05-05T08:39:11.078Z,99902.02
2023-05-05T08:40:12.112Z,99906.10
2023-05-05T08:41:12.124Z,99900.89
2023-05-05T08:42:11.187Z,99901.80
2023-05-05T08:43:11.185Z,99902.78
2023-05-05T08:44:11.299Z,99909.39
2023-05-05T08:45:11.512Z,99904.23
2023-05-05T08:46:12.149Z,99902.83
2023-05-05T08:47:12.122Z,99908.20
2023-05-05T08:48:11.160Z,99903.90
2023-05-05T08:49:15.196Z,99904.14
2023-05-05T08:50:11.112Z,99904.19
2023-05-05T08:51:13.123Z,99902.14
2023-05-05T08:52:11.121Z,99899.07
2023-05-05T08:53:17.245Z,99898.03
2023-05-05T08:54:16.077Z,99898.78
2023-05-05T08:55:14.087Z,99901.32
2023-05-05T08:56:12.183Z,99900.61
2023-05-05T08:57:11.080Z,99900.35
2023-05-05T08:58:11.087Z,99898.80
2023-05-05T08:59:11.090Z,99901.03
2023-05-05T09:00:11.090Z,99898.30
2023-05-05T09:01:11.202Z,99903.01
2023-05-05T09:02:11.126Z,99903.13
2023-05-05T09:03:11.226Z,99905.18
2023-05-05T09:04:11.122Z,99908.69
2023-05-05T09:05:11.282Z,99905.81
2023-05-05T09:06:11.093Z,99907.61
2023-05-05T09:07:11.117Z,99908.98
2023-05-05T09:08:13.092Z,99912.44
2023-05-05T09:09:11.109Z,99910.72
2023-05-05T09:10:11.102Z,99912.04
2023-05-05T09:11:11.080Z,99914.71
2023-05-05T09:12:11.097Z,99918.53
2023-05-05T09:13:11.118Z,99918.36
2023-05-05T09:14:11.089Z,99919.90
2023-05-05T09:15:11.098Z,99917.46
2023-05-05T09:16:11.113Z,99918.62
2023-05-05T09:17:19.091Z,99926.26
2023-05-05T09:18:11.155Z,99922.35
2023-05-05T09:19:11.086Z,99920.24
2023-05-05T09:20:13.104Z,99925.71
2023-05-05T09:21:19.088Z,99918.86
2023-05-05T09:22:11.095Z,99923.61
2023-05-05T09:23:15.082Z,99922.21
2023-05-05T09:24:13.101Z,99926.81
2023-05-05T09:25:14.096Z,99922.72
2023-05-05T09:26:12.108Z,99920.97
2023-05-05T09:27:19.089Z,99918.20
2023-05-05T09:28:16.104Z,99917.11
2023-05-05T09:29:15.086Z,99912.52
2023-05-05T09:30:11.115Z,99914.13
2023-05-05T09:31:15.161Z,99903.25
2023-05-05T09:32:12.097Z,99905.41
2023-05-05T09:33:11.149Z,99904.47
2023-05-05T09:34:15.100Z,99907.75
2023-05-05T09:35:11.091Z,99909.86
2023-05-05T09:36:11.090Z,99901.98
2023-05-05T09:37:11.099Z,99908.64
2023-05-05T09:38:13.087Z,99908.62
2023-05-05T09:39:11.111Z,99906.30
2023-05-05T09:40:11.086Z,99904.72
2023-05-05T09:41:11.092Z,99899.83
2023-05-05T09:42:19.089Z,99906.10
2023-05-05T09:43:11.314Z,99908.88
2023-05-05T09:44:12.114Z,99909.60
2023-05-05T09:45:19.094Z,99904.08
2023-05-05T09:46:11.152Z,99906.13
2023-05-05T09:47:22.112Z,99907.72
2023-05-05T09:48:22.414Z,99909.69
2023-05-05T09:49:13.092Z,99908.70
2023-05-05T09:50:11.101Z,99906.49
2023-05-05T09:51:11.088Z,99906.25
2023-05-05T09:52:15.101Z,99907.89
2023-05-05T09:53:11.096Z,99900.98
2023-05-05T09:54:15.100Z,99899.93
2023-05-05T09:55:17.085Z,99899.75
2023-05-05T09:56:11.096Z,99902.58
2023-05-05T09:57:15.090Z,99899.88
2023-05-05T09:58:21.223Z,99900.43
2023-05-05T09:59:11.093Z,99896.93
2023-05-05T10:00:11.338Z,99902.26
2023-05-05T10:01:19.083Z,99895.88
2023-05-05T10:02:13.075Z,99893.67
2023-05-05T10:03:11.083Z,99899.29
2023-05-05T10:04:17.081Z,99896.84
2023-05-05T10:05:15.126Z,99898.79
2023-05-05T10:06:11.067Z,99895.98
2023-05-05T10:07:15.089Z,99896.76
2023-05-05T10:08:13.078Z,99899.05
2023-05-05T10:09:11.068Z,99898.09
2023-05-05T10:10:13.087Z,99896.91
2023-05-05T10:11:11.079Z,99899.03
2023-05-05T10:12:11.083Z,99905.27
2023-05-05T10:13:11.135Z,99901.29
2023-05-05T10:14:12.060Z,99898.43
2023-05-05T10:15:11.058Z,99906.22
2023-05-05T10:16:12.095Z,99899.00
2023-05-05T10:17:11.063Z,99904.23
2023-05-05T10:18:11.122Z,99904.27
2023-05-05T10:19:11.060Z,99899.52
2023-05-05T10:20:12.065Z,99895.43
2023-05-05T10:21:12.066Z,99892.50
2023-05-05T10:22:12.060Z,99892.57
2023-05-05T10:23:14.073Z,99890.99
2023-05-05T10:24:20.060Z,99891.36
2023-05-05T10:25:13.065Z,99897.36
2023-05-05T10:26:11.082Z,99893.66
2023-05-05T10:27:17.072Z,99887.74
2023-05-05T10:28:13.061Z,99884.48
2023-05-05T10:29:16.069Z,99887.30
2023-05-05T10:30:16.082Z,99884.23
2023-05-05T10:31:25.765Z,99883.21
2023-05-05T10:32:47.206Z,99873.48
2023-05-05T10:33:31.538Z,99880.65
2023-05-05T10:34:19.070Z,99887.88
2023-05-05T10:35:11.074Z,99884.05
2023-05-05T10:36:11.071Z,99884.11
2023-05-05T10:37:11.071Z,99884.27
2023-05-05T10:38:11.077Z,99884.10
2023-05-05T10:39:14.072Z,99883.60
2023-05-05T10:40:11.249Z,99881.87
2023-05-05T10:41:11.075Z,99882.96
2023-05-05T10:42:11.109Z,99878.17
2023-05-05T10:43:11.071Z,99883.64
2023-05-05T10:44:11.116Z,99886.34
2023-05-05T10:45:11.091Z,99882.02
2023-05-05T10:46:11.098Z,99880.70
2023-05-05T10:47:11.083Z,99882.43
2023-05-05T10:48:14.129Z,99880.46
2023-05-05T10:49:19.078Z,99875.10
2023-05-05T10:50:19.074Z,99874.10
2023-05-05T10:51:30.963Z,99876.62
2023-05-05T10:52:21.386Z,99871.91
2023-05-05T10:53:21.095Z,99875.49
2023-05-05T10:54:21.190Z,99873.65
2023-05-05T10:55:17.076Z,99871.30
2023-05-05T10:56:21.086Z,99872.88
2023-05-05T10:57:12.079Z,99867.33
2023-05-05T10:58:15.076Z,99874.08
2023-05-05T10:59:19.078Z,99866.10
2023-05-05T11:00:11.420Z,99868.71
2023-05-05T11:01:11.106Z,99865.89
2023-05-05T11:02:19.086Z,99866.15
2023-05-05T11:03:20.196Z,99860.38
2023-05-05T11:04:19.083Z,99858.09
2023-05-05T11:05:15.227Z,99856.77
2023-05-05T11:06:12.081Z,99862.81
2023-05-05T11:07:19.079Z,99861.38
2023-05-05T11:08:19.091Z,99860.63
2023-05-05T11:09:19.093Z,99859.82
2023-05-05T11:10:11.414Z,99859.29
2023-05-05T11:11:11.077Z,99856.66
2023-05-05T11:12:11.084Z,99853.16
2023-05-05T11:13:17.169Z,99856.64
2023-05-05T11:14:19.076Z,99856.96
2023-05-05T11:15:19.085Z,99864.23
2023-05-05T11:16:19.133Z,99853.61
2023-05-05T11:17:19.080Z,99850.01
2023-05-05T11:18:19.088Z,99858.74
2023-05-05T11:19:19.081Z,99853.98
2023-05-05T11:20:11.093Z,99856.89
2023-05-05T11:21:16.074Z,99853.51
2023-05-05T11:22:11.085Z,99853.65
2023-05-05T11:23:19.088Z,99849.91
2023-05-05T11:24:19.095Z,99848.84
2023-05-05T11:25:19.078Z,99848.04
2023-05-05T11:26:11.089Z,99846.45
2023-05-05T11:27:11.078Z,99850.11
2023-05-05T11:28:15.090Z,99848.54
2023-05-05T11:29:11.081Z,99842.26
2023-05-05T11:30:11.275Z,99846.50
2023-05-05T11:31:17.127Z,99845.41
2023-05-05T11:32:13.095Z,99846.97
2023-05-05T11:33:19.083Z,99847.96
2023-05-05T11:34:21.092Z,99840.54
2023-05-05T11:35:11.093Z,99842.84
2023-05-05T11:36:15.085Z,99843.77
2023-05-05T11:37:11.087Z,99842.05
2023-05-05T11:38:11.089Z,99839.84
2023-05-05T11:39:23.157Z,99843.45
2023-05-05T11:40:21.076Z,99838.46
2023-05-05T11:41:17.086Z,99840.06
2023-05-05T11:42:21.089Z,99843.05
2023-05-05T11:43:11.089Z,99841.23
2023-05-05T11:44:19.079Z,99840.80